MDT,Max TemperatureF,Mean TemperatureF,Min TemperatureF,Max Dew PointF,MeanDew PointF,Min DewpointF,Max Humidity, Mean Humidity, Min Humidity, Max Sea Level PressureIn, Mean Sea Level PressureIn, Min Sea Level PressureIn, Max VisibilityMiles, Mean VisibilityMiles, Min VisibilityMiles, Max Wind SpeedMPH, Mean Wind SpeedMPH, Max Gust SpeedMPH,PrecipitationIn, CloudCover, Events, WindDirDegrees
2013-10-1,79,61,43,38,33,26,65,40,15,30.00,29.91,29.82,10,10,10,13,6,14,0.00,0,,152
2013-10-2,76,61,45,32,27,22,53,34,14,29.96,29.86,29.76,10,10,10,17,8,23,0.00,0,,150
2013-10-3,73,55,36,37,31,27,92,56,20,30.04,29.73,29.57,10,10,5,33,14,43,0.11,3,Rain,216
2013-10-4,46,39,32,36,31,27,100,75,49,30.37,30.13,29.93,10,9,2,23,5,28,0.10,5,Rain-Snow,286
2013-10-5,51,41,31,31,28,25,92,64,35,30.45,30.40,30.34,10,10,10,10,3,13,0.00,2,,130
2013-10-6,61,45,29,33,27,21,92,57,22,30.48,30.37,30.28,10,10,10,12,5,14,0.00,0,,156
2013-10-7,71,53,34,39,33,28,82,53,23,30.29,30.14,29.96,10,10,10,12,5,13,0.00,0,,136
2013-10-8,74,57,40,38,32,25,71,44,16,30.00,29.83,29.70,10,10,8,29,9,37,0.00,1,,186
2013-10-9,70,57,44,36,29,17,58,36,14,29.79,29.73,29.68,10,10,10,20,7,26,0.00,2,,143
2013-10-10,53,49,44,46,40,32,100,77,54,29.85,29.75,29.64,10,8,2,20,6,25,0.62,6,Rain,235
2013-10-11,55,47,38,43,37,33,92,71,50,30.08,29.96,29.84,10,10,10,18,4,29,0.03,7,Rain,145
2013-10-12,61,47,32,37,33,30,92,62,32,30.14,30.06,29.99,10,10,10,13,6,14,0.00,1,,116
2013-10-13,71,55,39,43,33,29,79,51,22,30.00,29.89,29.76,10,10,10,32,11,38,T,4,Rain-Thunderstorm,162
2013-10-14,51,44,37,41,38,35,92,74,56,30.12,30.01,29.81,10,10,5,26,6,33,0.19,6,Rain-Thunderstorm,49
2013-10-15,50,42,34,38,35,33,100,80,60,30.21,30.12,30.06,10,10,10,15,5,20,0.01,7,Rain,135
2013-10-16,51,42,32,34,29,21,89,61,33,30.26,30.16,30.10,10,10,8,9,4,17,T,4,Rain,96
2013-10-17,56,43,30,32,27,23,85,56,27,30.19,30.07,29.95,10,10,10,10,5,14,0.00,0,,126
2013-10-18,52,42,31,30,22,13,82,52,21,30.24,30.14,29.97,10,10,10,13,5,17,0.00,1,,142
2013-10-19,59,43,26,27,22,16,81,50,19,30.29,30.18,30.08,10,10,10,12,5,13,0.00,0,,149
2013-10-20,58,44,29,30,25,22,78,52,25,30.08,30.01,29.94,10,10,10,17,5,28,0.00,1,,156
2013-10-21,60,45,30,29,25,17,85,52,19,30.22,30.14,30.01,10,10,10,12,5,12,0.00,0,,150
2013-10-22,63,47,30,30,25,21,72,48,23,30.32,30.23,30.14,10,10,10,12,6,13,0.00,0,,144
2013-10-23,66,49,31,30,28,26,78,51,24,30.25,30.15,30.06,10,10,10,15,7,29,0.00,0,,145
2013-10-24,66,50,33,33,29,27,75,49,22,30.22,30.13,30.04,10,10,10,12,6,13,0.00,1,,123
2013-10-25,63,51,39,39,34,30,76,55,34,30.21,30.16,30.10,10,10,9,18,8,22,0.00,3,,146
2013-10-26,65,50,35,36,34,31,92,61,30,30.31,30.23,30.17,10,10,10,15,5,16,0.00,0,,139
2013-10-27,65,50,35,33,31,29,82,56,30,30.17,29.99,29.75,10,10,10,13,6,24,0.00,1,,118
2013-10-28,67,56,44,29,23,16,49,33,16,29.88,29.70,29.59,10,9,2,30,12,41,0.00,2,,161
2013-10-29,56,47,38,39,31,19,93,61,28,29.96,29.81,29.70,10,9,4,31,12,44,0.21,5,Rain,176
2013-10-30,48,40,31,35,32,29,100,75,49,30.04,29.98,29.89,10,8,1,10,4,12,0.21,6,Rain,137
2013-10-31,45,39,33,33,30,23,100,73,45,30.15,30.10,30.05,10,9,2,9,4,11,0.00,8,Snow,127